Latest Weather Observations for Ben Nevis

IDV60801

Issued at 1:31 am EST Tuesday 7 July 2015 (issued every 30 minutes, with the page automatically refreshed every 10 minutes)

About weather observations | Map of weather stations | Latest weather observations for VIC | Other Formats
Station Details ID: 079101 Name: BEN NEVIS Lat: -37.23 Lon: 143.20 Height: 875.0 m
Data from the previous 72 hours. | See also: Recent months at Ben Nevis
Date/Time
EST
Temp
°C
App
Temp
°C
Dew
Point
Rel
Hum
%
Delta-T
°C
Wind Press
QNH
hPa
Press
MSL
hPa
Rain
since 9 am
mm
Dir
 
Spd
km/h
Gust
km/h
Spd
kts
Gust
kts
07/01:30am 4.1 1.6 4.0 99 0.0 N 6 7 3 4 - - 1.2
07/01:00am 4.6 2.2 4.5 99 0.0 N 6 9 3 5 - - 1.2
07/12:30am 4.7 2.4 4.6 99 0.0 NNW 6 11 3 6 - - 1.2
07/12:00am 4.8 2.5 4.7 99 0.0 NNW 6 11 3 6 - - 1.2
 
Date/Time
EST
Temp
°C
App
Temp
°C
Dew
Point
Rel
Hum
%
Delta-T
°C
Wind Press
QNH
hPa
Press
MSL
hPa
Rain
since 9 am
mm
Dir
 
Spd
km/h
Gust
km/h
Spd
kts
Gust
kts
06/11:30pm 4.8 2.3 4.7 99 0.0 NW 7 9 4 5 - - 1.2
06/11:00pm 4.6 2.1 4.5 99 0.0 NNW 7 13 4 7 - - 1.0
06/10:30pm 4.3 1.3 4.2 99 0.0 NNW 9 15 5 8 - - 1.0
06/10:00pm 3.5 0.7 3.4 99 0.0 NW 7 11 4 6 - - 1.0
06/09:30pm 3.9 1.2 3.8 99 0.0 NNW 7 11 4 6 - - 1.0
06/09:00pm 3.9 0.8 3.8 99 0.0 NNE 9 15 5 8 - - 1.0
06/08:30pm 4.4 1.1 4.3 99 0.0 N 11 17 6 9 - - 1.0
06/08:00pm 4.9 2.0 4.8 99 0.0 N 9 17 5 9 - - 1.0
06/07:30pm 5.2 2.8 5.1 99 0.0 N 7 11 4 6 - - 1.0
06/07:00pm 5.1 2.3 5.0 99 0.0 NNE 9 15 5 8 - - 1.0
06/06:30pm 5.0 2.1 4.9 99 0.0 N 9 15 5 8 - - 1.0
06/06:00pm 5.0 2.1 4.9 99 0.0 N 9 13 5 7 - - 1.0
06/05:30pm 4.9 2.0 4.8 99 0.0 N 9 15 5 8 - - 1.0
06/05:00pm 5.1 2.3 5.0 99 0.0 N 9 17 5 9 - - 1.0
06/04:30pm 5.4 2.2 5.3 99 0.0 N 11 15 6 8 - - 1.0
06/04:00pm 5.5 3.3 5.4 99 0.0 NNW 6 11 3 6 - - 1.0
06/03:30pm 5.6 2.5 5.5 99 0.0 N 11 17 6 9 - - 1.0
06/03:00pm 6.6 4.1 6.5 99 0.0 N 9 15 5 8 - - 1.0
06/02:30pm 5.4 2.2 5.3 99 0.0 N 11 19 6 10 - - 1.0
06/02:00pm 5.2 1.6 5.1 99 0.0 N 13 20 7 11 - - 1.0
06/01:30pm 5.3 2.1 5.2 99 0.0 NNW 11 17 6 9 - - 1.0
06/01:00pm 5.5 2.0 5.4 99 0.0 N 13 20 7 11 - - 1.0
06/12:30pm 5.5 2.4 5.4 99 0.0 N 11 15 6 8 - - 1.0
06/12:00pm 4.8 1.5 4.7 99 0.0 N 11 17 6 9 - - 1.0
06/11:30am 4.7 1.0 4.6 99 0.0 N 13 22 7 12 - - 0.8
06/11:00am 4.5 0.8 4.2 98 0.1 N 13 24 7 13 - - 0.6
06/10:30am 4.1 0.3 3.7 97 0.2 N 13 24 7 13 - - 0.4
06/10:00am 3.9 -0.4 3.2 95 0.3 N 15 22 8 12 - - 0.2
06/09:30am 4.3 0.0 3.0 91 0.6 N 15 26 8 14 - - 0.0
06/09:00am 4.1 -0.7 2.6 90 0.6 N 17 28 9 15 - - 0.0
06/08:30am 3.9 -1.3 2.6 91 0.6 N 19 35 10 19 - - 0.0
06/08:00am 4.0 -1.4 2.7 91 0.6 N 20 43 11 23 - - 0.0
06/07:30am 3.9 -1.4 2.9 93 0.4 N 20 33 11 18 - - 0.0
06/07:00am 3.6 -1.8 2.6 93 0.4 N 20 32 11 17 - - 0.0
06/06:30am 3.5 -1.7 2.3 92 0.5 N 19 33 10 18 - - 0.0
06/06:00am 3.7 -1.7 2.5 92 0.5 N 20 39 11 21 - - 0.0
06/05:30am 3.7 -1.8 1.7 87 0.8 N 20 32 11 17 - - 0.0
06/05:00am 3.6 -2.0 1.5 86 0.9 N 20 37 11 20 - - 0.0
06/04:30am 3.8 -1.8 1.5 85 1.0 N 20 32 11 17 - - 0.0
06/04:00am 3.8 -1.6 1.4 84 1.0 N 19 30 10 16 - - 0.0
06/03:30am 3.9 -1.5 1.4 84 1.0 N 19 32 10 17 - - 0.0
06/03:00am 4.0 -1.4 1.4 83 1.1 N 19 33 10 18 - - 0.0
06/02:30am 4.2 -1.2 1.4 82 1.2 N 19 33 10 18 - - 0.0
06/02:00am 4.1 -1.5 1.3 82 1.2 N 20 35 11 19 - - 0.0
06/01:30am 4.3 -1.3 1.5 82 1.2 N 20 35 11 19 - - 0.0
06/01:00am 4.4 -1.0 1.4 81 1.2 N 19 33 10 18 - - 0.0
06/12:30am 4.6 -0.8 1.5 80 1.3 N 19 33 10 18 - - 0.0
06/12:00am 4.8 -0.8 1.5 79 1.4 N 20 32 11 17 - - 0.0
 
Date/Time
EST
Temp
°C
App
Temp
°C
Dew
Point
Rel
Hum
%
Delta-T
°C
Wind Press
QNH
hPa
Press
MSL
hPa
Rain
since 9 am
mm
Dir
 
Spd
km/h
Gust
km/h
Spd
kts
Gust
kts
05/11:30pm 4.9 -0.4 1.6 79 1.4 N 19 28 10 15 - - 0.0
05/11:00pm 5.0 0.1 1.7 79 1.4 N 17 26 9 14 - - 0.0
05/10:30pm 5.1 -0.2 1.6 78 1.5 N 19 28 10 15 - - 0.0
05/10:00pm 5.1 0.1 1.6 78 1.5 N 17 26 9 14 - - 0.0
05/09:30pm 5.2 0.2 1.5 77 1.6 N 17 30 9 16 - - 0.0
05/09:00pm 5.0 0.4 1.3 77 1.5 N 15 28 8 15 - - 0.0
05/08:30pm 5.1 0.1 1.4 77 1.5 N 17 30 9 16 - - 0.0
05/08:00pm 5.2 0.6 1.5 77 1.6 N 15 28 8 15 - - 0.0
05/07:30pm 5.1 0.1 1.6 78 1.5 N 17 28 9 15 - - 0.0
05/07:00pm 5.2 0.3 2.0 80 1.4 N 17 28 9 15 - - 0.0
05/06:30pm 4.9 0.0 2.1 82 1.2 N 17 30 9 16 - - 0.0
05/06:00pm 4.8 -0.1 2.2 83 1.1 N 17 26 9 14 - - 0.0
05/05:30pm 5.0 0.5 2.4 83 1.1 N 15 22 8 12 - - 0.0
05/05:00pm 5.7 1.7 2.7 81 1.3 N 13 22 7 12 - - 0.0
05/04:30pm 6.2 1.8 2.7 78 1.5 N 15 26 8 14 - - 0.0
05/04:00pm 6.8 2.9 3.2 78 1.6 NNW 13 24 7 13 - - 0.0
05/03:30pm 7.1 2.7 2.8 74 1.9 N 15 24 8 13 - - 0.0
05/03:00pm 7.9 4.0 3.2 72 2.1 N 13 26 7 14 - - 0.0
05/02:30pm 8.2 3.9 3.3 71 2.2 N 15 30 8 16 - - 0.0
05/02:00pm 9.0 4.8 3.8 70 2.4 N 15 24 8 13 - - 0.0
05/01:30pm 8.7 4.4 3.1 68 2.5 N 15 26 8 14 - - 0.0
05/01:00pm 8.1 4.2 3.2 71 2.2 N 13 26 7 14 - - 0.0
05/12:30pm 8.0 3.3 3.1 71 2.2 N 17 30 9 16 - - 0.0
05/12:00pm 7.3 2.2 3.2 75 1.8 N 19 32 10 17 - - 0.0
05/11:30am 7.4 2.7 2.9 73 2.0 NNW 17 24 9 13 - - 0.0
05/11:00am 6.4 1.7 2.9 78 1.5 N 17 30 9 16 - - 0.0
05/10:30am 5.2 0.7 2.4 82 1.2 N 15 26 8 14 - - 0.0
05/10:00am 4.7 -0.6 2.1 83 1.1 N 19 32 10 17 - - 0.0
05/09:30am 3.9 -1.4 1.6 85 1.0 NNW 19 30 10 16 - - 0.0
05/09:00am 4.2 -0.7 1.7 84 1.0 NNW 17 28 9 15 - - 0.0
05/08:30am 3.1 -2.3 1.3 88 0.7 NNW 19 28 10 15 - - 0.0
05/08:00am 2.9 -2.7 1.3 89 0.7 NNW 20 32 11 17 - - 0.0
05/07:30am 2.8 -2.6 1.2 89 0.7 NNW 19 32 10 17 - - 0.0
05/07:00am 2.9 -2.7 1.3 89 0.7 NNW 20 35 11 19 - - 0.0
05/06:30am 2.7 -2.3 1.1 89 0.6 NNW 17 35 9 19 - - 0.0
05/06:00am 2.9 -1.8 1.1 88 0.7 NNW 15 30 8 16 - - 0.0
05/05:30am 3.2 -2.2 1.3 87 0.8 NNW 19 28 10 15 - - 0.0
05/05:00am 3.4 -1.6 1.3 86 0.9 NNW 17 30 9 16 - - 0.0
05/04:30am 3.4 -1.6 1.3 86 0.9 NNW 17 28 9 15 - - 0.0
05/04:00am 3.6 -1.3 1.8 88 0.7 NNW 17 30 9 16 - - 0.0
05/03:30am 3.5 -1.0 2.0 90 0.6 N 15 24 8 13 - - 0.0
05/03:00am 3.5 -0.6 2.2 91 0.5 NNW 13 22 7 12 - - 0.0
05/02:30am 3.6 -0.9 2.1 90 0.6 NNW 15 24 8 13 - - 0.0
05/02:00am 3.7 -0.4 2.4 91 0.5 NNW 13 22 7 12 - - 0.0
05/01:30am 3.7 -0.8 2.2 90 0.6 NNW 15 24 8 13 - - 0.0
05/01:00am 3.9 -0.6 2.4 90 0.6 NNW 15 22 8 12 - - 0.0
05/12:30am 4.0 -0.1 2.4 89 0.7 NNW 13 22 7 12 - - 0.0
05/12:00am 4.3 0.3 2.7 89 0.7 N 13 22 7 12 - - 0.0
 
Date/Time
EST
Temp
°C
App
Temp
°C
Dew
Point
Rel
Hum
%
Delta-T
°C
Wind Press
QNH
hPa
Press
MSL
hPa
Rain
since 9 am
mm
Dir
 
Spd
km/h
Gust
km/h
Spd
kts
Gust
kts
04/11:30pm 4.3 0.3 2.8 90 0.6 N 13 20 7 11 - - 0.0
04/11:00pm 4.5 0.5 2.8 89 0.7 NNW 13 20 7 11 - - 0.0
04/10:30pm 4.5 0.5 3.0 90 0.6 N 13 20 7 11 - - 0.0
04/10:00pm 4.7 1.1 3.0 89 0.7 NNW 11 17 6 9 - - 0.0
04/09:30pm 4.9 1.0 3.2 89 0.7 NNW 13 19 7 10 - - 0.0
04/09:00pm 4.8 1.2 3.1 89 0.7 N 11 19 6 10 - - 0.0
04/08:30pm 4.9 1.7 3.2 89 0.7 NNW 9 15 5 8 - - 0.0
04/08:00pm 4.9 1.7 3.2 89 0.7 NNW 9 13 5 7 - - 0.0
04/07:30pm 4.9 1.7 3.2 89 0.7 NNW 9 15 5 8 - - 0.0
04/07:00pm 4.9 2.1 3.4 90 0.7 NNW 7 15 4 8 - - 0.0
04/06:30pm 4.8 1.6 3.3 90 0.7 NNW 9 13 5 7 - - 0.0
04/06:00pm 4.7 1.6 3.4 91 0.6 NNW 9 15 5 8 - - 0.0
04/05:30pm 4.7 2.1 3.4 91 0.6 NW 6 11 3 6 - - 0.0
04/05:00pm 4.7 1.6 3.4 91 0.6 NNW 9 17 5 9 - - 0.0
04/04:30pm 5.0 1.9 3.5 90 0.7 NW 9 15 5 8 - - 0.0
04/04:00pm 5.1 2.3 3.4 89 0.7 NW 7 15 4 8 - - 0.0
04/03:30pm 5.0 2.3 3.5 90 0.7 NW 7 13 4 7 - - 0.0
04/03:00pm 4.9 2.1 3.1 88 0.8 NW 7 15 4 8 - - 0.0
04/02:30pm 5.1 1.9 3.3 88 0.8 NW 9 15 5 8 - - 0.0
04/02:00pm 5.4 2.2 3.1 85 1.0 NNW 9 13 5 7 - - 0.0
04/01:30pm 5.5 2.6 2.8 83 1.2 NW 7 17 4 9 - - 0.0
04/01:00pm 5.4 2.2 3.1 85 1.0 NW 9 20 5 11 - - 0.0
04/12:30pm 4.7 1.5 3.2 90 0.7 NNW 9 17 5 9 - - 0.0
04/12:00pm 4.0 0.7 2.7 91 0.6 NNW 9 19 5 10 - - 0.0
04/11:30am 4.1 0.9 2.9 92 0.5 NNW 9 19 5 10 - - 0.0
04/11:00am 3.7 0.4 2.4 91 0.5 NNW 9 19 5 10 - - 0.0
04/10:30am 3.0 -0.6 0.9 86 0.8 NW 9 15 5 8 - - 0.0
04/10:00am 3.1 -0.4 1.2 87 0.8 NNW 9 20 5 11 - - 0.0
04/09:30am 3.0 -1.0 0.4 83 1.0 NNW 11 19 6 10 - - 0.0
04/09:00am 2.9 -0.8 0.1 82 1.1 NNW 9 17 5 9 - - 0.2
04/08:30am 2.7 -1.7 0.1 83 1.0 NNW 13 19 7 10 - - 0.2
04/08:00am 2.0 -1.7 -0.1 86 0.8 NNW 9 17 5 9 - - 0.2
04/07:30am 1.7 -2.4 -0.4 86 0.8 NNW 11 19 6 10 - - 0.2
04/07:00am 1.7 -2.1 -0.4 86 0.8 NW 9 20 5 11 - - 0.2
04/06:30am 2.0 -2.1 -0.4 84 0.9 NNW 11 19 6 10 - - 0.2
04/06:00am 2.0 -1.8 -0.6 83 1.0 NW 9 20 5 11 - - 0.2
04/05:30am 1.9 -1.9 -0.7 83 1.0 NNW 9 17 5 9 - - 0.2
04/05:00am 1.5 -2.3 -1.1 83 1.0 NNW 9 13 5 7 - - 0.2
04/04:30am 1.7 -2.9 -1.0 82 1.0 NNW 13 24 7 13 - - 0.2
04/04:00am 1.8 -2.4 -0.9 82 1.0 NNW 11 15 6 8 - - 0.2
04/03:30am 1.5 -3.5 -1.4 81 1.1 NNW 15 19 8 10 - - 0.2
04/03:00am 1.7 -2.9 -1.4 80 1.2 NNW 13 17 7 9 - - 0.2
04/02:30am 1.6 -3.0 -1.3 81 1.1 NNW 13 20 7 11 - - 0.2
04/02:00am 1.5 -2.7 -1.2 82 1.0 NNW 11 20 6 11 - - 0.2

Other Formats:

Comma delimited format used in spreadsheet applications
http://www.bom.gov.au/fwo/IDV60801/IDV60801.94835.axf

JavaScript Object Notation format (JSON) in row-major order
http://www.bom.gov.au/fwo/IDV60801/IDV60801.94835.json